1987 LYNN (1987288N13168)


On this page: IBTrACS data - Map and Plots - Positions - Intensities - Original source data

Summary

Start Oct 14
End Oct 28
Basin WP
LMI 140 kt
Sources jtwc_wp
tokyo
cma
hko
td9636
In WMO? Yes
Previous storm 1987 MISSING (NI)
Previous in basin 1987 KELLY (WP)
Concurrent storms 1987 KELLY (WP)
1987 MISSING (NI)
1987 LYNN (WP)
1987 SELMA (EP)
Next in basin Missing
Next storm 1987 SELMA (EP)

top of page IBTrACS Data: File Access

top of page HURSAT Data: File Access

Image of storm

top of page Plots:

Map of storm track will not appear if FTP is down
Time series of cyclone Maximum Sustained Wind will not appear if FTP is down
Time series of cyclone Minimum Central Pressure will not appear if FTP is down

top of page Track Data:Position

jtwc_wp tokyo cma hko td9636
Date Lat Lon Lat Lon Lat Lon Lat Lon Lat Lon
1987-10-14 18:00:00 12.8 167.7 12.8 167.7
1987-10-15 00:00:00 12.8 165.6 12.8 165.6
1987-10-15 06:00:00 12.7 163.5 12.7 163.5
1987-10-15 12:00:00 12.6 161.4 12.6 161.4
1987-10-15 18:00:00 12.6 159.3 13.5 158.0 12.7 159.2
1987-10-16 00:00:00 12.8 157.2 13.5 156.8 12.0 155.0 13.5 156.9 12.8 157.2
1987-10-16 06:00:00 13.0 155.3 13.5 155.6 12.5 154.3 13.5 155.7 13.0 155.4
1987-10-16 12:00:00 13.2 153.9 13.5 154.4 12.9 153.7 13.5 154.5 13.2 153.9
1987-10-16 18:00:00 13.3 153.2 13.5 153.2 13.2 153.0 13.5 153.3 13.3 153.0
1987-10-17 00:00:00 13.3 152.3 13.5 152.0 13.4 152.0 13.5 152.0 13.3 152.3
1987-10-17 06:00:00 13.3 151.3 13.5 150.8 13.5 151.0 13.5 150.7 13.2 151.3
1987-10-17 12:00:00 13.2 150.1 13.6 149.7 13.5 150.0 13.5 149.5 13.2 150.1
1987-10-17 18:00:00 13.3 148.9 13.7 148.6 13.5 148.9 13.6 148.3 13.3 148.8
1987-10-18 00:00:00 13.6 147.6 13.8 147.5 13.8 147.5 13.8 147.4 13.6 147.6
1987-10-18 06:00:00 14.0 146.6 14.2 146.6 14.2 146.6 14.3 146.6 14.0 146.6
1987-10-18 12:00:00 14.6 145.7 14.7 146.1 14.7 146.0 14.7 145.9 14.6 145.7
1987-10-18 18:00:00 15.1 145.0 15.1 145.3 15.1 145.3 15.1 145.2 15.2 145.0
1987-10-19 00:00:00 15.7 144.3 15.7 144.6 15.6 144.5 15.6 144.5 15.7 144.3
1987-10-19 06:00:00 16.2 143.5 16.2 143.5 16.1 143.5 16.1 143.6 16.2 143.5
1987-10-19 12:00:00 16.6 142.7 16.5 142.7 16.5 142.7 16.6 142.7 16.6 142.7
1987-10-19 18:00:00 16.9 141.8 16.9 142.1 16.9 142.0 17.0 142.0 17.0 141.9
1987-10-20 00:00:00 17.3 141.1 17.4 141.2 17.4 141.2 17.3 141.2 17.3 141.1
1987-10-20 06:00:00 17.6 140.2 17.7 140.0 17.7 140.2 17.8 140.0 17.6 140.2
1987-10-20 12:00:00 17.8 139.2 17.9 139.0 17.8 139.2 17.9 139.0 17.8 139.2
1987-10-20 18:00:00 18.0 138.0 18.0 138.0 17.8 138.1 17.9 138.0 17.9 138.0
jtwc_wp tokyo cma hko td9636
1987-10-21 00:00:00 18.0 136.7 18.0 137.1 18.0 137.1 17.9 137.1 18.0 136.7
1987-10-21 06:00:00 18.0 135.3 18.2 135.8 18.2 135.8 18.2 135.8 18.0 135.4
1987-10-21 12:00:00 18.0 134.0 18.4 134.0 18.5 134.0 18.5 134.0 18.0 134.0
1987-10-21 18:00:00 18.0 132.5 18.3 132.3 18.7 132.6 18.7 132.6 18.0 132.5
1987-10-22 00:00:00 18.0 130.9 18.2 130.7 18.2 130.7 18.2 130.7 18.0 130.9
1987-10-22 06:00:00 18.0 129.3 18.1 129.3 18.1 129.3 18.0 129.3 18.0 129.3
1987-10-22 12:00:00 18.1 127.8 18.1 127.9 18.0 128.0 18.3 127.9 18.1 127.8
1987-10-22 18:00:00 18.1 126.3 18.1 126.4 18.0 126.3 18.1 126.4 18.2 126.3
1987-10-23 00:00:00 18.3 124.9 18.3 124.9 18.3 124.9 18.3 124.9 18.3 124.9
1987-10-23 06:00:00 18.5 123.6 18.7 123.7 18.6 123.7 18.8 123.6 18.5 123.6
1987-10-23 12:00:00 18.8 122.5 18.8 122.3 18.8 122.5 18.9 122.3 18.8 122.5
1987-10-23 18:00:00 19.1 121.6 19.0 121.5 19.0 121.5 19.0 121.4 19.1 121.6
1987-10-24 00:00:00 19.4 120.9 19.3 121.0 19.3 121.0 19.3 121.0 19.4 120.9
1987-10-24 06:00:00 19.7 120.3 19.6 120.5 19.6 120.3 19.6 120.5 19.7 120.3
1987-10-24 12:00:00 20.0 119.9 19.9 120.0 19.8 120.0 19.9 120.0 20.0 119.9
1987-10-24 18:00:00 20.3 119.6 20.1 119.7 20.1 119.7 20.1 119.7 20.3 119.5
1987-10-25 00:00:00 20.6 119.3 20.3 119.4 20.2 119.5 20.3 119.4 20.6 119.3
1987-10-25 06:00:00 20.9 119.1 20.6 119.2 20.6 119.3 20.7 119.1 20.9 119.1
1987-10-25 12:00:00 21.1 119.0 21.0 119.0 20.8 119.1 21.2 119.3 21.1 119.0
1987-10-25 18:00:00 21.3 118.9 21.2 118.9 20.9 118.9 21.2 119.1 21.3 118.9
1987-10-26 00:00:00 21.5 118.7 21.4 118.8 20.9 118.9 21.2 119.0 21.5 118.7
1987-10-26 06:00:00 21.7 118.2 21.4 118.8 20.9 118.9 21.2 119.0 21.6 118.3
1987-10-26 12:00:00 21.6 117.8 21.4 118.8 21.0 118.7 21.3 119.0 21.6 117.8
1987-10-26 18:00:00 21.5 117.6 21.0 118.3 21.0 118.4 21.0 118.8 21.5 117.6
jtwc_wp tokyo cma hko td9636
1987-10-27 00:00:00 21.3 117.3 20.9 117.7 21.0 118.0 21.1 118.0 21.3 117.3
1987-10-27 06:00:00 21.2 116.5 21.1 116.7 21.0 117.3 21.1 116.9 21.2 116.6
1987-10-27 12:00:00 21.2 115.7 21.2 115.8 21.0 116.4 21.2 115.7
1987-10-27 18:00:00 21.4 114.8 21.3 114.8 21.2 115.6 21.3 114.8
1987-10-28 00:00:00 21.9 114.0 21.6 114.1 21.5 114.5 21.9 114.0
1987-10-28 06:00:00 23.1 113.3 22.5 113.1 22.2 113.3 23.1 113.3

top of pageTrack Data:Intensity

jtwc_wp tokyo cma hko td9636
Date Wind Pres Wind Pres Wind Pres Wind Pres Wind Pres
1987-10-14 18:00:00 20. 20.
1987-10-15 00:00:00 25. 25.
1987-10-15 06:00:00 25. 25.
1987-10-15 12:00:00 25. 25.
1987-10-15 18:00:00 30. 1006. 25.
1987-10-16 00:00:00 35. 1004. 19. 1005. 25. 1004. 35.
1987-10-16 06:00:00 35. 35. 1000. 23. 1004. 30. 1002. 35.
1987-10-16 12:00:00 35. 35. 998. 29. 1004. 30. 1002. 35.
1987-10-16 18:00:00 40. 40. 996. 39. 998. 35. 1000. 35.
1987-10-17 00:00:00 45. 45. 994. 39. 995. 40. 995. 45.
1987-10-17 06:00:00 55. 45. 992. 39. 995. 40. 995. 45.
1987-10-17 12:00:00 55. 45. 990. 49. 990. 45. 990. 55.
1987-10-17 18:00:00 60. 45. 985. 49. 990. 50. 985. 55.
1987-10-18 00:00:00 65. 60. 980. 58. 980. 55. 980. 65.
1987-10-18 06:00:00 70. 65. 975. 58. 980. 60. 975. 65.
1987-10-18 12:00:00 75. 65. 970. 68. 975. 65. 970. 75.
1987-10-18 18:00:00 80. 65. 970. 68. 970. 65. 970. 75.
1987-10-19 00:00:00 90. 70. 965. 78. 965. 70. 965. 90.
1987-10-19 06:00:00 100. 75. 960. 78. 960. 80. 960. 90.
1987-10-19 12:00:00 115. 80. 950. 87. 950. 90. 950. 115.
1987-10-19 18:00:00 125. 90. 940. 97. 940. 95. 945. 115.
1987-10-20 00:00:00 140. 100. 930. 117. 930. 105. 935. 140.
1987-10-20 06:00:00 140. 100. 920. 126. 920. 115. 925. 140.
1987-10-20 12:00:00 140. 100. 920. 136. 910. 115. 925. 140.
1987-10-20 18:00:00 140. 105. 920. 126. 915. 115. 925. 140.
jtwc_wp tokyo cma hko td9636
1987-10-21 00:00:00 140. 100. 920. 117. 925. 110. 930. 140.
1987-10-21 06:00:00 125. 95. 925. 117. 930. 110. 930. 140.
1987-10-21 12:00:00 125. 95. 925. 107. 935. 110. 930. 125.
1987-10-21 18:00:00 115. 90. 930. 107. 935. 105. 935. 125.
1987-10-22 00:00:00 100. 90. 935. 107. 935. 100. 940. 100.
1987-10-22 06:00:00 100. 90. 935. 97. 935. 95. 945. 100.
1987-10-22 12:00:00 100. 90. 935. 97. 935. 95. 945. 100.
1987-10-22 18:00:00 95. 90. 935. 87. 940. 95. 945. 100.
1987-10-23 00:00:00 90. 85. 940. 87. 940. 90. 950. 90.
1987-10-23 06:00:00 90. 85. 940. 87. 940. 90. 950. 90.
1987-10-23 12:00:00 90. 85. 940. 87. 940. 90. 950. 90.
1987-10-23 18:00:00 90. 85. 945. 87. 945. 85. 955. 90.
1987-10-24 00:00:00 90. 80. 950. 78. 950. 80. 960. 90.
1987-10-24 06:00:00 85. 75. 950. 78. 955. 75. 965. 90.
1987-10-24 12:00:00 75. 75. 955. 68. 960. 75. 965. 75.
1987-10-24 18:00:00 65. 75. 960. 68. 960. 70. 970. 75.
1987-10-25 00:00:00 65. 70. 965. 58. 970. 65. 975. 65.
1987-10-25 06:00:00 60. 65. 970. 58. 975. 60. 980. 65.
1987-10-25 12:00:00 55. 65. 975. 49. 985. 55. 985. 55.
1987-10-25 18:00:00 45. 60. 980. 49. 985. 50. 990. 55.
1987-10-26 00:00:00 45. 55. 985. 49. 990. 50. 990. 45.
1987-10-26 06:00:00 40. 45. 990. 39. 995. 45. 995. 45.
1987-10-26 12:00:00 35. 45. 996. 39. 995. 45. 995. 35.
1987-10-26 18:00:00 35. 40. 998. 39. 996. 40. 998. 35.
jtwc_wp tokyo cma hko td9636
1987-10-27 00:00:00 35. 1000. 39. 996. 35. 1000. 35.
1987-10-27 06:00:00 30. 1002. 39. 1000. 30. 1002. 35.
1987-10-27 12:00:00 30. 1006. 29. 1002. 30.
1987-10-27 18:00:00 30. 1008. 29. 1004. 30.
1987-10-28 00:00:00 30. 1010. 29. 1006. 30.
1987-10-28 06:00:00 25. 1012. 19. 1008. 25.

top of page Links to source data

Source Source file Format
jtwc_wp bwp211987.txt ATCF
tokyo bst_all.txt:Line=36504:LYNN:8720 JMA text table
cma CH1987BST.txt:Storm=23:Lynn CMA text table
hko tc-besttrack-data.txt:Line=19093:LYNN HKO Text table
td9636 cons_worldwide_trop_cyclone_18710101-19891231-003:Line=31159 TD 9636